createdAt,value
2017-12-16T11:22:58.809Z,985.2
2017-12-16T11:23:19.014Z,985.2
2017-12-16T11:23:39.260Z,985.2
2017-12-16T11:23:59.500Z,985.2
2017-12-16T11:24:19.748Z,985.2
2017-12-16T11:24:41.347Z,985.2
2017-12-16T11:25:02.905Z,985.2
2017-12-16T11:25:24.100Z,985.2
2017-12-16T11:25:46.270Z,985.2
2017-12-16T11:26:07.281Z,985.2
2017-12-16T11:26:28.345Z,985.2
2017-12-16T11:26:48.662Z,985.2
2017-12-16T11:27:09.030Z,985.2
2017-12-16T11:27:29.294Z,985.2
2017-12-16T11:27:50.716Z,985.2
2017-12-16T11:28:11.354Z,985.2
2017-12-16T11:28:32.728Z,985.2
2017-12-16T11:28:53.071Z,985.2
2017-12-16T11:29:13.389Z,985.2
2017-12-16T11:29:34.237Z,985.3
2017-12-16T11:29:55.505Z,985.2
2017-12-16T11:30:15.883Z,985.3
2017-12-16T11:30:36.109Z,985.2
2017-12-16T11:30:56.305Z,985.3
2017-12-16T11:31:16.510Z,985.3
2017-12-16T11:31:36.715Z,985.2
2017-12-16T11:31:57.236Z,985.2
2017-12-16T11:32:17.480Z,985.3
2017-12-16T11:32:37.699Z,985.3
2017-12-16T11:32:57.889Z,985.3
2017-12-16T11:33:19.227Z,985.2
2017-12-16T11:33:39.466Z,985.3
2017-12-16T11:33:59.709Z,985.3
2017-12-16T11:34:19.985Z,985.3
2017-12-16T11:34:40.846Z,985.3
2017-12-16T11:35:01.158Z,985.3
2017-12-16T11:35:21.365Z,985.3
2017-12-16T11:35:41.577Z,985.3
2017-12-16T11:36:02.027Z,985.3
2017-12-16T11:36:23.030Z,985.3
2017-12-16T11:36:43.220Z,985.3
2017-12-16T11:37:03.558Z,985.3
2017-12-16T11:37:25.175Z,985.3
2017-12-16T11:37:46.108Z,985.3
2017-12-16T11:38:06.625Z,985.4
2017-12-16T11:38:27.038Z,985.4
2017-12-16T11:38:47.906Z,985.3
2017-12-16T11:39:08.285Z,985.3
2017-12-16T11:39:28.530Z,985.3
2017-12-16T11:39:49.741Z,985.3
2017-12-16T11:40:10.066Z,985.3
2017-12-16T11:40:30.356Z,985.4
2017-12-16T11:40:51.242Z,985.3
2017-12-16T11:41:11.595Z,985.4
2017-12-16T11:41:31.823Z,985.4
2017-12-16T11:41:52.242Z,985.4
2017-12-16T11:42:12.530Z,985.4
2017-12-16T11:42:33.477Z,985.3
2017-12-16T11:42:53.787Z,985.3
2017-12-16T11:43:14.145Z,985.4
2017-12-16T11:43:34.413Z,985.4
2017-12-16T11:43:54.714Z,985.4
2017-12-16T11:44:15.579Z,985.4
2017-12-16T11:44:35.837Z,985.4
2017-12-16T11:44:56.214Z,985.4
2017-12-16T11:45:16.813Z,985.3
2017-12-16T11:45:37.395Z,985.4
2017-12-16T11:45:57.898Z,985.4
2017-12-16T11:46:19.245Z,985.3
2017-12-16T11:46:39.544Z,985.4
2017-12-16T11:46:59.774Z,985.4
2017-12-16T11:47:20.734Z,985.4
2017-12-16T11:47:41.324Z,985.4
2017-12-16T11:48:01.805Z,985.4
2017-12-16T11:48:22.091Z,985.4
2017-12-16T11:48:43.718Z,985.4
2017-12-16T11:49:03.945Z,985.4
2017-12-16T11:49:24.010Z,985.4
2017-12-16T11:49:45.164Z,985.4
2017-12-16T11:50:05.689Z,985.4
2017-12-16T11:50:25.980Z,985.4
2017-12-16T11:50:48.357Z,985.4
2017-12-16T11:51:08.641Z,985.4
2017-12-16T11:51:29.089Z,985.4
2017-12-16T11:51:49.298Z,985.3
2017-12-16T11:52:09.516Z,985.4
2017-12-16T11:52:29.815Z,985.4
2017-12-16T11:52:50.278Z,985.4
2017-12-16T11:53:12.480Z,985.4
2017-12-16T11:53:32.751Z,985.4
2017-12-16T11:53:52.955Z,985.4
2017-12-16T11:54:18.286Z,985.4
2017-12-16T11:54:38.631Z,985.4
2017-12-16T11:55:01.059Z,985.4
2017-12-16T11:55:22.101Z,985.4
2017-12-16T11:55:42.316Z,985.5
2017-12-16T11:56:02.588Z,985.4
2017-12-16T11:56:22.845Z,985.4
2017-12-16T11:56:43.719Z,985.4
2017-12-16T11:57:04.226Z,985.4
2017-12-16T11:57:25.599Z,985.5
2017-12-16T11:57:45.657Z,985.5
2017-12-16T11:58:05.906Z,985.5
2017-12-16T11:58:26.126Z,985.4
2017-12-16T11:58:46.436Z,985.4
2017-12-16T11:59:06.817Z,985.5
2017-12-16T11:59:27.109Z,985.5
2017-12-16T11:59:47.439Z,985.5
2017-12-16T12:00:07.746Z,985.5
2017-12-16T12:00:27.958Z,985.5
2017-12-16T12:00:48.216Z,985.5
2017-12-16T12:01:08.516Z,985.5
2017-12-16T12:01:28.747Z,985.5
2017-12-16T12:01:48.989Z,985.5
2017-12-16T12:02:09.192Z,985.5
2017-12-16T12:02:29.424Z,985.5
2017-12-16T12:02:49.657Z,985.5
2017-12-16T12:03:09.895Z,985.5
2017-12-16T12:03:30.074Z,985.5
2017-12-16T12:03:50.275Z,985.5
2017-12-16T12:04:10.523Z,985.6
2017-12-16T12:04:30.714Z,985.5
2017-12-16T12:04:50.971Z,985.6
2017-12-16T12:05:11.209Z,985.6
2017-12-16T12:05:31.518Z,985.6
2017-12-16T12:05:51.768Z,985.6
2017-12-16T12:06:11.982Z,985.6
2017-12-16T12:06:32.204Z,985.6
2017-12-16T12:06:52.412Z,985.6
2017-12-16T12:07:12.697Z,985.6
2017-12-16T12:07:32.852Z,985.6
2017-12-16T12:07:53.045Z,985.6
2017-12-16T12:08:13.254Z,985.6
2017-12-16T12:08:33.457Z,985.6
2017-12-16T12:08:53.679Z,985.6
2017-12-16T12:09:13.896Z,985.6
2017-12-16T12:09:34.147Z,985.6
2017-12-16T12:09:54.380Z,985.6
2017-12-16T12:10:14.612Z,985.6
2017-12-16T12:10:34.878Z,985.6
2017-12-16T12:10:55.088Z,985.6
2017-12-16T12:11:15.345Z,985.6
2017-12-16T12:11:35.572Z,985.6
2017-12-16T12:11:55.768Z,985.7
2017-12-16T12:12:15.986Z,985.7
2017-12-16T12:12:36.187Z,985.6
2017-12-16T12:12:56.402Z,985.7
2017-12-16T12:13:16.618Z,985.6
2017-12-16T12:13:36.944Z,985.6
2017-12-16T12:13:57.155Z,985.7
2017-12-16T12:14:17.370Z,985.7
2017-12-16T12:14:37.603Z,985.7
2017-12-16T12:14:57.806Z,985.7
2017-12-16T12:15:18.000Z,985.7
2017-12-16T12:15:38.212Z,985.6
2017-12-16T12:15:58.417Z,985.7
2017-12-16T12:16:18.630Z,985.7
2017-12-16T12:16:38.847Z,985.6
2017-12-16T12:16:59.075Z,985.7
2017-12-16T12:17:19.284Z,985.6
2017-12-16T12:17:39.509Z,985.7
2017-12-16T12:17:59.731Z,985.7
2017-12-16T12:18:19.954Z,985.6
2017-12-16T12:18:40.170Z,985.7
2017-12-16T12:19:00.392Z,985.6
2017-12-16T12:19:20.597Z,985.7
2017-12-16T12:19:40.822Z,985.7
2017-12-16T12:20:01.048Z,985.7
2017-12-16T12:20:21.258Z,985.7
2017-12-16T12:20:42.026Z,985.7
2017-12-16T12:21:02.270Z,985.7
2017-12-16T12:21:22.473Z,985.7
2017-12-16T12:21:42.680Z,985.7
2017-12-16T12:22:02.880Z,985.7
2017-12-16T12:22:23.095Z,985.7
2017-12-16T12:22:43.304Z,985.7
2017-12-16T12:23:03.515Z,985.7
2017-12-16T12:23:23.728Z,985.7
2017-12-16T12:23:43.942Z,985.7
2017-12-16T12:24:04.165Z,985.7
2017-12-16T12:24:24.381Z,985.7
2017-12-16T12:24:44.615Z,985.7
2017-12-16T12:25:04.835Z,985.7
2017-12-16T12:25:25.028Z,985.7
2017-12-16T12:25:45.259Z,985.7
2017-12-16T12:26:05.481Z,985.7
2017-12-16T12:26:26.266Z,985.7
2017-12-16T12:26:46.474Z,985.7
2017-12-16T12:27:06.658Z,985.7
2017-12-16T12:27:26.904Z,985.7
2017-12-16T12:27:47.114Z,985.7
2017-12-16T12:28:07.308Z,985.7
2017-12-16T12:28:27.547Z,985.7
2017-12-16T12:28:47.760Z,985.7
2017-12-16T12:29:07.973Z,985.7
2017-12-16T12:29:28.201Z,985.7
2017-12-16T12:29:48.417Z,985.7
2017-12-16T12:30:08.643Z,985.7
2017-12-16T12:30:28.887Z,985.7
2017-12-16T12:30:49.109Z,985.7
2017-12-16T12:31:09.407Z,985.7
2017-12-16T12:31:29.762Z,985.7
2017-12-16T12:31:50.071Z,985.8
2017-12-16T12:32:10.293Z,985.7
2017-12-16T12:32:30.629Z,985.7
2017-12-16T12:32:50.853Z,985.8
2017-12-16T12:33:11.087Z,985.7
2017-12-16T12:33:31.309Z,985.8
2017-12-16T12:33:51.535Z,985.7
2017-12-16T12:34:11.753Z,985.8
2017-12-16T12:34:32.542Z,985.8
2017-12-16T12:34:52.729Z,985.7
2017-12-16T12:35:12.931Z,985.7
2017-12-16T12:35:33.221Z,985.7
2017-12-16T12:35:53.450Z,985.7
2017-12-16T12:36:13.710Z,985.7
2017-12-16T12:36:33.942Z,985.6
2017-12-16T12:36:54.158Z,985.7
2017-12-16T12:37:14.382Z,985.7
2017-12-16T12:37:34.610Z,985.7
2017-12-16T12:37:54.975Z,985.7
2017-12-16T12:38:15.205Z,985.7
2017-12-16T12:38:35.406Z,985.7
2017-12-16T12:38:55.712Z,985.7
2017-12-16T12:39:16.275Z,985.7
2017-12-16T12:39:36.488Z,985.7
2017-12-16T12:39:56.855Z,985.7
2017-12-16T12:40:17.276Z,985.7
2017-12-16T12:40:37.491Z,985.7
2017-12-16T12:40:57.696Z,985.7
2017-12-16T12:41:18.032Z,985.7
2017-12-16T12:41:38.226Z,985.7
2017-12-16T12:41:58.456Z,985.7
2017-12-16T12:42:18.749Z,985.7
2017-12-16T12:42:38.975Z,985.7
2017-12-16T12:43:00.289Z,985.7
2017-12-16T12:43:20.511Z,985.7
2017-12-16T12:43:40.722Z,985.7
2017-12-16T12:44:00.947Z,985.7
2017-12-16T12:44:21.223Z,985.7
2017-12-16T12:44:41.424Z,985.7
2017-12-16T12:45:01.680Z,985.7
2017-12-16T12:45:21.894Z,985.7
2017-12-16T12:45:42.097Z,985.7
2017-12-16T12:46:02.329Z,985.7
2017-12-16T12:46:23.021Z,985.7
2017-12-16T12:46:43.452Z,985.7
2017-12-16T12:47:03.721Z,985.7
2017-12-16T12:47:24.133Z,985.7
2017-12-16T12:47:44.425Z,985.7
2017-12-16T12:48:04.877Z,985.7
2017-12-16T12:48:25.106Z,985.7
2017-12-16T12:48:45.422Z,985.7
2017-12-16T12:49:05.720Z,985.7
2017-12-16T12:49:25.932Z,985.7
2017-12-16T12:49:46.235Z,985.7
2017-12-16T12:50:06.863Z,985.7
2017-12-16T12:50:27.173Z,985.7
2017-12-16T12:50:47.574Z,985.7
2017-12-16T12:51:07.910Z,985.7
2017-12-16T12:51:28.229Z,985.8
2017-12-16T12:51:48.540Z,985.8
2017-12-16T12:52:08.778Z,985.7
2017-12-16T12:52:29.182Z,985.7
2017-12-16T12:52:49.746Z,985.8
2017-12-16T12:53:10.017Z,985.7
2017-12-16T12:53:30.418Z,985.7
2017-12-16T12:53:50.797Z,985.7
2017-12-16T12:54:11.325Z,985.7
2017-12-16T12:54:31.641Z,985.8
2017-12-16T12:54:52.611Z,985.8
2017-12-16T12:55:12.855Z,985.8
2017-12-16T12:55:34.134Z,985.8
2017-12-16T12:55:54.438Z,985.7
2017-12-16T12:56:15.224Z,985.7
2017-12-16T12:56:35.760Z,985.8
2017-12-16T12:56:56.080Z,985.7
2017-12-16T12:57:16.390Z,985.7
2017-12-16T12:57:36.844Z,985.8
2017-12-16T12:57:57.191Z,985.8
2017-12-16T12:58:17.532Z,985.8
2017-12-16T12:58:37.789Z,985.8
2017-12-16T12:58:58.046Z,985.8
2017-12-16T12:59:18.279Z,985.7
2017-12-16T12:59:38.534Z,985.8
2017-12-16T12:59:58.788Z,985.7
2017-12-16T13:00:19.051Z,985.7
2017-12-16T13:00:39.341Z,985.8
2017-12-16T13:00:59.584Z,985.7
2017-12-16T13:01:19.887Z,985.8
2017-12-16T13:01:41.330Z,985.7
2017-12-16T13:02:01.763Z,985.8
2017-12-16T13:02:22.099Z,985.7
2017-12-16T13:02:43.822Z,985.7
2017-12-16T13:03:04.811Z,985.8
2017-12-16T13:03:25.156Z,985.8
2017-12-16T13:03:45.723Z,985.8
2017-12-16T13:04:09.744Z,985.7
2017-12-16T13:04:30.923Z,985.8
2017-12-16T13:04:52.321Z,985.8
2017-12-16T13:05:12.492Z,985.8
2017-12-16T13:05:32.861Z,985.8
2017-12-16T13:05:53.092Z,985.8
2017-12-16T13:06:13.329Z,985.8
2017-12-16T13:06:34.162Z,985.8
2017-12-16T13:06:55.778Z,985.8
2017-12-16T13:07:16.062Z,985.9
2017-12-16T13:07:36.450Z,985.9
2017-12-16T13:07:56.749Z,985.9
2017-12-16T13:08:17.056Z,985.8
2017-12-16T13:08:37.242Z,985.9
2017-12-16T13:08:57.517Z,985.9
2017-12-16T13:09:17.510Z,985.9
2017-12-16T13:09:37.884Z,985.9
2017-12-16T13:09:58.162Z,985.9
2017-12-16T13:10:18.474Z,985.9
2017-12-16T13:10:38.712Z,985.8
2017-12-16T13:10:58.978Z,985.9
2017-12-16T13:11:19.172Z,985.9
2017-12-16T13:11:39.394Z,985.9
2017-12-16T13:11:59.634Z,985.9
2017-12-16T13:12:19.860Z,985.9
2017-12-16T13:12:40.181Z,985.9
2017-12-16T13:13:00.412Z,985.9
2017-12-16T13:13:20.636Z,985.9
2017-12-16T13:13:40.930Z,985.9
2017-12-16T13:14:01.268Z,985.8
2017-12-16T13:14:22.500Z,985.9
2017-12-16T13:14:42.824Z,985.9
2017-12-16T13:15:03.188Z,986
2017-12-16T13:15:24.295Z,985.9
2017-12-16T13:15:44.642Z,985.9
2017-12-16T13:16:04.875Z,986
2017-12-16T13:16:25.204Z,986
2017-12-16T13:16:45.413Z,986
2017-12-16T13:17:05.643Z,986
2017-12-16T13:17:25.932Z,986
2017-12-16T13:17:46.186Z,985.9
2017-12-16T13:18:06.442Z,986
2017-12-16T13:18:26.679Z,986
2017-12-16T13:18:46.875Z,986
2017-12-16T13:19:06.983Z,986
2017-12-16T13:19:27.215Z,986
2017-12-16T13:19:47.491Z,986
2017-12-16T13:20:07.775Z,986
2017-12-16T13:20:28.584Z,986
2017-12-16T13:20:48.811Z,986
2017-12-16T13:21:09.730Z,986
2017-12-16T13:21:30.007Z,986
2017-12-16T13:21:50.230Z,986
2017-12-16T13:22:10.491Z,986.1
2017-12-16T13:22:30.817Z,986.1
2017-12-16T13:22:51.151Z,986.1
2017-12-16T13:23:11.491Z,986
2017-12-16T13:23:31.804Z,986.1
2017-12-16T13:23:52.035Z,986.1
2017-12-16T13:24:12.264Z,986.1
2017-12-16T13:24:32.705Z,986
2017-12-16T13:24:53.008Z,986
2017-12-16T13:25:13.276Z,986.1
2017-12-16T13:25:33.572Z,986
2017-12-16T13:25:53.931Z,986
2017-12-16T13:26:14.324Z,986
2017-12-16T13:26:34.554Z,986.1
2017-12-16T13:26:54.835Z,986
2017-12-16T13:27:15.023Z,986
2017-12-16T13:27:35.478Z,986
2017-12-16T13:27:55.820Z,986
2017-12-16T13:28:16.149Z,986.1
2017-12-16T13:28:36.530Z,986
2017-12-16T13:28:56.829Z,986.1
2017-12-16T13:29:17.170Z,986.1
2017-12-16T13:29:37.456Z,986.1
2017-12-16T13:29:57.793Z,986.1
2017-12-16T13:30:18.206Z,986.1
2017-12-16T13:30:38.434Z,986.1
2017-12-16T13:30:58.687Z,986.1
2017-12-16T13:31:18.967Z,986.1
2017-12-16T13:31:39.265Z,986.1
2017-12-16T13:31:59.600Z,986.1
2017-12-16T13:32:19.880Z,986.1
2017-12-16T13:32:40.088Z,986.1
2017-12-16T13:33:00.299Z,986.1
2017-12-16T13:33:20.558Z,986.1
2017-12-16T13:33:40.764Z,986.1
2017-12-16T13:34:00.984Z,986.1
2017-12-16T13:34:21.199Z,986.1
2017-12-16T13:34:41.467Z,986.1
2017-12-16T13:35:01.681Z,986.2
2017-12-16T13:35:21.916Z,986.2
2017-12-16T13:35:42.124Z,986.1
2017-12-16T13:36:04.667Z,986.2
2017-12-16T13:36:25.022Z,986.2
2017-12-16T13:36:45.229Z,986.2
2017-12-16T13:37:05.588Z,986.2
2017-12-16T13:37:26.801Z,986.1
2017-12-16T13:37:47.787Z,986.2
2017-12-16T13:38:09.574Z,986.2
2017-12-16T13:38:29.968Z,986.2
2017-12-16T13:38:50.275Z,986.2
2017-12-16T13:39:10.494Z,986.2
2017-12-16T13:39:31.405Z,986.2
2017-12-16T13:39:51.686Z,986.2
2017-12-16T13:40:12.031Z,986.2
2017-12-16T13:40:32.278Z,986.2
2017-12-16T13:40:52.516Z,986.3
2017-12-16T13:41:12.728Z,986.2
2017-12-16T13:41:32.975Z,986.2
2017-12-16T13:41:53.198Z,986.2
2017-12-16T13:42:13.527Z,986.3
2017-12-16T13:42:33.726Z,986.3
2017-12-16T13:42:53.960Z,986.3
2017-12-16T13:43:14.210Z,986.3
2017-12-16T13:43:34.430Z,986.3
2017-12-16T13:43:54.673Z,986.3
2017-12-16T13:44:14.909Z,986.2
2017-12-16T13:44:35.109Z,986.2
2017-12-16T13:44:55.314Z,986.3
2017-12-16T13:45:15.569Z,986.3
2017-12-16T13:45:35.782Z,986.3
2017-12-16T13:45:55.990Z,986.3
2017-12-16T13:46:16.270Z,986.3
2017-12-16T13:46:36.423Z,986.3
2017-12-16T13:46:56.667Z,986.3
2017-12-16T13:47:16.886Z,986.2
2017-12-16T13:47:37.120Z,986.3
2017-12-16T13:47:57.329Z,986.3
2017-12-16T13:48:17.591Z,986.3
2017-12-16T13:48:37.810Z,986.3
2017-12-16T13:48:58.048Z,986.3
2017-12-16T13:49:18.274Z,986.2
2017-12-16T13:49:39.309Z,986.3
2017-12-16T13:49:59.512Z,986.3
2017-12-16T13:50:19.741Z,986.3
2017-12-16T13:50:39.969Z,986.3
2017-12-16T13:51:00.162Z,986.2
2017-12-16T13:51:20.775Z,986.3
2017-12-16T13:51:41.000Z,986.3
2017-12-16T13:52:00.998Z,986.3
2017-12-16T13:52:21.250Z,986.2
2017-12-16T13:52:41.470Z,986.3
2017-12-16T13:53:01.712Z,986.2
2017-12-16T13:53:21.915Z,986.3
2017-12-16T13:53:42.132Z,986.2
2017-12-16T13:54:02.342Z,986.2
2017-12-16T13:54:22.571Z,986.2
2017-12-16T13:54:42.799Z,986.3
2017-12-16T13:55:03.024Z,986.3
2017-12-16T13:55:23.233Z,986.3
2017-12-16T13:55:43.459Z,986.3
2017-12-16T13:56:03.681Z,986.3
2017-12-16T13:56:23.899Z,986.3
2017-12-16T13:56:44.116Z,986.3
2017-12-16T13:57:04.396Z,986.4
2017-12-16T13:57:24.560Z,986.3
2017-12-16T13:57:44.782Z,986.4
2017-12-16T13:58:05.020Z,986.3
2017-12-16T13:58:25.227Z,986.3
2017-12-16T13:58:45.454Z,986.3
2017-12-16T13:59:05.665Z,986.3
2017-12-16T13:59:25.879Z,986.3
2017-12-16T13:59:46.118Z,986.3
2017-12-16T14:00:06.347Z,986.3
2017-12-16T14:00:26.538Z,986.3
2017-12-16T14:00:46.735Z,986.3
2017-12-16T14:01:06.978Z,986.3
2017-12-16T14:01:27.184Z,986.3
2017-12-16T14:01:47.436Z,986.3
2017-12-16T14:02:08.587Z,986.3
2017-12-16T14:02:28.833Z,986.4
2017-12-16T14:02:49.068Z,986.3
2017-12-16T14:03:09.304Z,986.4
2017-12-16T14:03:29.524Z,986.4
2017-12-16T14:03:49.728Z,986.4
2017-12-16T14:04:09.972Z,986.4
2017-12-16T14:04:30.298Z,986.4
2017-12-16T14:04:50.575Z,986.4
2017-12-16T14:05:10.772Z,986.4
2017-12-16T14:05:30.963Z,986.4
2017-12-16T14:05:51.188Z,986.4
2017-12-16T14:06:12.125Z,986.4
2017-12-16T14:06:32.336Z,986.4
2017-12-16T14:06:52.604Z,986.4
2017-12-16T14:07:12.817Z,986.4
2017-12-16T14:07:33.026Z,986.4
2017-12-16T14:07:53.242Z,986.4
2017-12-16T14:08:13.477Z,986.4
2017-12-16T14:08:33.689Z,986.4
2017-12-16T14:08:53.893Z,986.4
2017-12-16T14:09:14.120Z,986.4
2017-12-16T14:09:34.316Z,986.4
2017-12-16T14:09:54.517Z,986.4
2017-12-16T14:10:14.746Z,986.4
2017-12-16T14:10:34.955Z,986.4
2017-12-16T14:10:55.180Z,986.4
2017-12-16T14:11:15.371Z,986.4
2017-12-16T14:11:35.577Z,986.4
2017-12-16T14:11:55.815Z,986.4
2017-12-16T14:12:16.206Z,986.4
2017-12-16T14:12:36.424Z,986.4
2017-12-16T14:12:56.656Z,986.5
2017-12-16T14:13:16.881Z,986.4
2017-12-16T14:13:37.104Z,986.5
2017-12-16T14:13:57.326Z,986.5
2017-12-16T14:14:17.538Z,986.5
2017-12-16T14:14:37.775Z,986.5
2017-12-16T14:14:57.972Z,986.5
2017-12-16T14:15:18.197Z,986.5
2017-12-16T14:15:38.415Z,986.5
2017-12-16T14:15:58.627Z,986.5
2017-12-16T14:16:18.851Z,986.5
2017-12-16T14:16:39.065Z,986.5
2017-12-16T14:16:59.310Z,986.5
2017-12-16T14:17:19.521Z,986.5
2017-12-16T14:17:39.742Z,986.5
2017-12-16T14:18:00.671Z,986.6
2017-12-16T14:18:20.953Z,986.5
2017-12-16T14:18:41.256Z,986.5
2017-12-16T14:19:01.581Z,986.5
2017-12-16T14:19:21.847Z,986.5
2017-12-16T14:19:42.081Z,986.5
2017-12-16T14:20:02.291Z,986.5
2017-12-16T14:20:22.524Z,986.5
2017-12-16T14:20:42.740Z,986.5
2017-12-16T14:21:03.003Z,986.6
2017-12-16T14:21:23.208Z,986.6
2017-12-16T14:21:43.433Z,986.6
2017-12-16T14:22:03.653Z,986.5
2017-12-16T14:22:23.909Z,986.6
2017-12-16T14:22:44.130Z,986.6
2017-12-16T14:23:04.348Z,986.6
2017-12-16T14:23:24.545Z,986.6
2017-12-16T14:23:44.742Z,986.6
2017-12-16T14:24:04.960Z,986.6
2017-12-16T14:24:25.175Z,986.6
2017-12-16T14:24:45.714Z,986.6
2017-12-16T14:25:05.930Z,986.6
2017-12-16T14:25:26.128Z,986.6
2017-12-16T14:25:47.104Z,986.6
2017-12-16T14:26:07.320Z,986.6
2017-12-16T14:26:27.503Z,986.6
2017-12-16T14:26:47.718Z,986.6
2017-12-16T14:27:07.928Z,986.6
2017-12-16T14:27:28.138Z,986.6
2017-12-16T14:27:48.344Z,986.6
2017-12-16T14:28:08.589Z,986.7
2017-12-16T14:28:28.792Z,986.7
2017-12-16T14:28:49.541Z,986.7
2017-12-16T14:29:09.748Z,986.6
2017-12-16T14:29:29.949Z,986.6
2017-12-16T14:29:50.181Z,986.6
2017-12-16T14:30:10.415Z,986.7
2017-12-16T14:30:30.641Z,986.6
2017-12-16T14:30:50.831Z,986.7
2017-12-16T14:31:11.035Z,986.7
2017-12-16T14:31:31.248Z,986.7
2017-12-16T14:31:51.461Z,986.7
2017-12-16T14:32:11.694Z,986.7
2017-12-16T14:32:31.911Z,986.7
2017-12-16T14:32:52.128Z,986.7
2017-12-16T14:33:12.326Z,986.7
2017-12-16T14:33:32.536Z,986.7
2017-12-16T14:33:52.744Z,986.7
2017-12-16T14:34:13.830Z,986.7
2017-12-16T14:34:34.024Z,986.7
2017-12-16T14:34:54.253Z,986.8
2017-12-16T14:35:14.470Z,986.7
2017-12-16T14:35:34.686Z,986.7
2017-12-16T14:35:54.870Z,986.7
2017-12-16T14:36:15.082Z,986.7
2017-12-16T14:36:35.324Z,986.8
2017-12-16T14:36:55.557Z,986.7
2017-12-16T14:37:15.777Z,986.7
2017-12-16T14:37:35.995Z,986.8
2017-12-16T14:37:56.234Z,986.8
2017-12-16T14:38:16.458Z,986.8
2017-12-16T14:38:36.755Z,986.8
2017-12-16T14:38:57.366Z,986.8
2017-12-16T14:39:17.672Z,986.8
2017-12-16T14:39:37.901Z,986.8
2017-12-16T14:39:58.129Z,986.8
2017-12-16T14:40:18.349Z,986.8
2017-12-16T14:40:38.575Z,986.8
2017-12-16T14:40:58.826Z,986.8
2017-12-16T14:41:19.048Z,986.8
2017-12-16T14:41:39.244Z,986.8
2017-12-16T14:41:59.471Z,986.8
2017-12-16T14:42:19.715Z,986.8
2017-12-16T14:42:39.924Z,986.8
2017-12-16T14:43:00.121Z,986.8
2017-12-16T14:43:20.326Z,986.8
2017-12-16T14:43:40.534Z,986.8
2017-12-16T14:44:00.743Z,986.9
2017-12-16T14:44:20.964Z,986.8
2017-12-16T14:44:41.229Z,986.8
2017-12-16T14:45:02.212Z,986.8
2017-12-16T14:45:22.466Z,986.9
2017-12-16T14:45:42.678Z,986.8
2017-12-16T14:46:02.894Z,986.8
2017-12-16T14:46:23.114Z,986.8
2017-12-16T14:46:43.354Z,986.9
2017-12-16T14:47:03.423Z,986.9
2017-12-16T14:47:23.649Z,986.9
2017-12-16T14:47:43.896Z,986.9
2017-12-16T14:48:04.122Z,986.9
2017-12-16T14:48:24.349Z,986.9
2017-12-16T14:48:44.543Z,986.9
2017-12-16T14:49:04.788Z,986.9
2017-12-16T14:49:25.009Z,986.9
2017-12-16T14:49:45.229Z,986.9
2017-12-16T14:50:05.466Z,986.9
2017-12-16T14:50:25.690Z,986.9
2017-12-16T14:50:45.937Z,986.9
2017-12-16T14:51:06.179Z,986.9
2017-12-16T14:51:26.396Z,987
2017-12-16T14:51:48.261Z,986.9
2017-12-16T14:52:08.702Z,986.9
2017-12-16T14:52:28.909Z,987
2017-12-16T14:52:49.956Z,986.9
2017-12-16T14:53:10.220Z,986.9
2017-12-16T14:53:30.418Z,986.9
2017-12-16T14:53:50.634Z,986.9
2017-12-16T14:54:10.840Z,986.9
2017-12-16T14:54:31.079Z,986.9
2017-12-16T14:54:51.300Z,987
2017-12-16T14:55:11.535Z,987
2017-12-16T14:55:31.729Z,987
2017-12-16T14:55:51.927Z,987
2017-12-16T14:56:12.140Z,987
2017-12-16T14:56:32.355Z,987
2017-12-16T14:56:52.599Z,987
2017-12-16T14:57:12.831Z,987
2017-12-16T14:57:32.998Z,987
2017-12-16T14:57:53.790Z,987
2017-12-16T14:58:13.947Z,987
2017-12-16T14:58:34.155Z,987
2017-12-16T14:58:55.320Z,987
2017-12-16T14:59:15.556Z,987
2017-12-16T14:59:35.769Z,987
2017-12-16T14:59:55.957Z,987
2017-12-16T15:00:16.197Z,987
2017-12-16T15:00:36.438Z,987
2017-12-16T15:00:56.640Z,987
2017-12-16T15:01:16.860Z,987
2017-12-16T15:01:37.106Z,987
2017-12-16T15:01:57.726Z,987.1
2017-12-16T15:02:18.018Z,987.1
2017-12-16T15:02:38.277Z,987.1
2017-12-16T15:02:59.762Z,987.1
2017-12-16T15:03:21.270Z,987.1
2017-12-16T15:03:41.867Z,987.1
2017-12-16T15:04:02.677Z,987.1
2017-12-16T15:04:26.292Z,987.2
2017-12-16T15:04:47.699Z,987.2
2017-12-16T15:05:07.912Z,987.2
2017-12-16T15:05:28.714Z,987.2
2017-12-16T15:05:48.957Z,987.2
2017-12-16T15:06:10.964Z,987.2
2017-12-16T15:06:33.346Z,987.2
2017-12-16T15:06:54.776Z,987.2
2017-12-16T15:07:15.788Z,987.2
2017-12-16T15:07:36.225Z,987.2
2017-12-16T15:07:56.862Z,987.2
2017-12-16T15:08:17.112Z,987.2
2017-12-16T15:08:37.800Z,987.2
2017-12-16T15:08:58.402Z,987.2
2017-12-16T15:09:19.055Z,987.2
2017-12-16T15:09:39.335Z,987.2
2017-12-16T15:09:59.634Z,987.2
2017-12-16T15:10:19.854Z,987.2
2017-12-16T15:10:40.298Z,987.3
2017-12-16T15:11:01.975Z,987.3
2017-12-16T15:11:22.332Z,987.3
2017-12-16T15:11:42.594Z,987.3
2017-12-16T15:12:02.871Z,987.3
2017-12-16T15:12:23.318Z,987.2
2017-12-16T15:12:43.521Z,987.3
2017-12-16T15:13:03.808Z,987.3
2017-12-16T15:13:24.804Z,987.3
2017-12-16T15:13:45.064Z,987.3
2017-12-16T15:14:06.360Z,987.3
2017-12-16T15:14:26.966Z,987.4
2017-12-16T15:14:47.305Z,987.3
2017-12-16T15:15:08.266Z,987.4
2017-12-16T15:15:29.338Z,987.4
2017-12-16T15:15:49.397Z,987.4
2017-12-16T15:16:10.635Z,987.4
2017-12-16T15:16:30.871Z,987.4
2017-12-16T15:16:51.218Z,987.4
2017-12-16T15:17:11.456Z,987.4
2017-12-16T15:17:31.676Z,987.4
2017-12-16T15:17:53.919Z,987.4
2017-12-16T15:18:14.620Z,987.4
2017-12-16T15:18:35.692Z,987.4
2017-12-16T15:18:55.938Z,987.4
2017-12-16T15:19:16.173Z,987.4
2017-12-16T15:19:36.871Z,987.4
2017-12-16T15:19:57.122Z,987.4
2017-12-16T15:20:17.369Z,987.4
2017-12-16T15:20:37.888Z,987.5
2017-12-16T15:20:59.776Z,987.5
2017-12-16T15:21:19.963Z,987.5
2017-12-16T15:21:42.853Z,987.5
2017-12-16T15:22:06.942Z,987.5
2017-12-16T15:22:27.166Z,987.6
2017-12-16T15:22:47.443Z,987.5
2017-12-16T15:23:07.697Z,987.5
2017-12-16T15:23:27.925Z,987.5
2017-12-16T15:23:48.168Z,987.6
2017-12-16T15:24:08.777Z,987.6
2017-12-16T15:24:30.837Z,987.6
2017-12-16T15:24:51.206Z,987.6
2017-12-16T15:25:12.098Z,987.6
2017-12-16T15:25:32.297Z,987.6
2017-12-16T15:25:53.103Z,987.6
2017-12-16T15:26:14.869Z,987.6
2017-12-16T15:26:35.138Z,987.6
2017-12-16T15:26:55.406Z,987.6
2017-12-16T15:27:18.291Z,987.6
2017-12-16T15:27:38.656Z,987.6
2017-12-16T15:28:00.024Z,987.6
2017-12-16T15:28:21.135Z,987.6
2017-12-16T15:28:41.342Z,987.6
2017-12-16T15:29:02.232Z,987.6
2017-12-16T15:29:22.437Z,987.6
2017-12-16T15:29:42.854Z,987.6
2017-12-16T15:30:04.769Z,987.6
2017-12-16T15:30:25.226Z,987.6
2017-12-16T15:30:45.474Z,987.6
2017-12-16T15:31:05.721Z,987.6
2017-12-16T15:31:25.985Z,987.5
2017-12-16T15:31:46.261Z,987.6
2017-12-16T15:32:06.929Z,987.6
2017-12-16T15:32:27.226Z,987.5
2017-12-16T15:32:47.542Z,987.6
2017-12-16T15:33:09.791Z,987.5
2017-12-16T15:33:29.993Z,987.6
2017-12-16T15:33:50.221Z,987.6
2017-12-16T15:34:11.684Z,987.6
2017-12-16T15:34:33.778Z,987.6
2017-12-16T15:34:53.976Z,987.5
2017-12-16T15:35:14.185Z,987.5
2017-12-16T15:35:34.412Z,987.6
2017-12-16T15:35:54.666Z,987.6
2017-12-16T15:36:14.966Z,987.6
2017-12-16T15:36:35.186Z,987.6
2017-12-16T15:36:55.447Z,987.6
2017-12-16T15:37:15.722Z,987.6
2017-12-16T15:37:35.749Z,987.6
2017-12-16T15:37:56.692Z,987.6
2017-12-16T15:38:17.011Z,987.6
2017-12-16T15:38:37.190Z,987.6
2017-12-16T15:38:57.469Z,987.6
2017-12-16T15:39:17.668Z,987.6
2017-12-16T15:39:37.990Z,987.6
2017-12-16T15:39:59.051Z,987.6
2017-12-16T15:40:19.800Z,987.6
2017-12-16T15:40:40.043Z,987.6
2017-12-16T15:41:00.394Z,987.6
2017-12-16T15:41:20.671Z,987.7
2017-12-16T15:41:41.507Z,987.7
2017-12-16T15:42:02.193Z,987.6
2017-12-16T15:42:22.519Z,987.6
2017-12-16T15:42:42.758Z,987.6
2017-12-16T15:43:02.988Z,987.7
2017-12-16T15:43:23.221Z,987.7
2017-12-16T15:43:43.431Z,987.6
2017-12-16T15:44:04.790Z,987.7
2017-12-16T15:44:25.083Z,987.6
2017-12-16T15:44:45.307Z,987.7
2017-12-16T15:45:05.683Z,987.7
2017-12-16T15:45:26.767Z,987.7
2017-12-16T15:45:46.986Z,987.7
2017-12-16T15:46:08.129Z,987.7
2017-12-16T15:46:28.324Z,987.7
2017-12-16T15:46:48.545Z,987.7
2017-12-16T15:47:08.753Z,987.6